Time;durP1;ratioP1;P1;durP2;ratioP2;P2;SDS_P1;SDS_P2;PMS_P1;PMS_P2;Temp;Humidity;BMP_temperature;BMP_pressure;BME280_temperature;BME280_humidity;BME280_pressure;Samples;Min_cycle;Max_cycle;Signal;HPM_P1;HPM_P2
2022/10/21 00:00:29;;;;;;;0.22;0.22;;;10.20;99.90;;;;;;5008719;28;20033;-75
2022/10/21 00:02:57;;;;;;;0.00;0.00;;;10.10;99.90;;;;;;4994564;28;20021;-76
2022/10/21 00:05:22;;;;;;;0.00;0.00;;;10.10;99.90;;;;;;5001020;28;20038;-76
2022/10/21 00:07:51;;;;;;;0.00;0.00;;;10.20;99.90;;;;;;4997205;28;20030;-76
2022/10/21 00:10:17;;;;;;;0.00;0.00;;;10.20;99.90;;;;;;5003417;28;20026;-76
2022/10/21 00:12:42;;;;;;;0.00;0.00;;;10.20;99.90;;;;;;5013280;28;20026;-74
2022/10/21 00:15:09;;;;;;;0.00;0.00;;;10.20;99.90;;;;;;4997745;28;20018;-76
2022/10/21 00:17:38;;;;;;;;;;;10.10;99.90;;;;;;5005895;28;20014;-76
2022/10/21 00:20:06;;;;;;;0.00;0.00;;;10.10;99.90;;;;;;4990238;28;19906;-75
2022/10/21 00:22:38;;;;;;;0.00;0.00;;;10.10;99.90;;;;;;4998463;28;20105;-74
2022/10/21 00:25:04;;;;;;;0.00;0.00;;;10.00;99.90;;;;;;4998964;28;20120;-76
2022/10/21 00:27:30;;;;;;;0.00;0.00;;;10.00;99.90;;;;;;4998825;28;20054;-76
2022/10/21 00:30:02;;;;;;;0.00;0.00;;;10.00;99.90;;;;;;5009631;28;20100;-75
2022/10/21 00:32:29;;;;;;;0.00;0.00;;;10.00;99.90;;;;;;4998565;28;20879;-76
2022/10/21 00:34:56;;;;;;;;;;;10.00;99.90;;;;;;4998888;28;20036;-75
2022/10/21 00:37:22;;;;;;;0.00;0.00;;;10.00;99.90;;;;;;5000084;28;19913;-76
2022/10/21 00:39:50;;;;;;;0.00;0.00;;;10.00;99.90;;;;;;4997011;28;20018;-75
2022/10/21 00:42:20;;;;;;;0.00;0.00;;;9.90;99.90;;;;;;5012951;28;20426;-76
2022/10/21 00:45:04;;;;;;;0.00;0.00;;;9.90;99.90;;;;;;4997364;28;20018;-76
2022/10/21 00:47:50;;;;;;;0.10;0.10;;;9.90;99.90;;;;;;5002741;28;20053;-76
2022/10/21 00:50:49;;;;;;;0.00;0.00;;;9.90;99.90;;;;;;4990976;28;20026;-76
2022/10/21 00:53:15;;;;;;;0.00;0.00;;;9.80;99.90;;;;;;4986209;28;20022;-76
2022/10/21 00:55:48;;;;;;;0.20;0.20;;;9.80;99.90;;;;;;5001140;28;20018;-76
2022/10/21 00:58:23;;;;;;;0.10;0.10;;;9.80;99.90;;;;;;4993687;28;20526;-76
2022/10/21 01:00:50;;;;;;;0.00;0.00;;;9.80;99.90;;;;;;5011856;28;20029;-75
2022/10/21 01:03:16;;;;;;;0.00;0.00;;;9.80;99.90;;;;;;4997485;28;20766;-75
2022/10/21 01:05:46;;;;;;;0.00;0.00;;;9.70;99.90;;;;;;4993143;28;20846;-76
2022/10/21 01:08:14;;;;;;;0.00;0.00;;;9.70;99.90;;;;;;5011727;28;20045;-76
2022/10/21 01:10:41;;;;;;;0.00;0.00;;;9.70;99.90;;;;;;5008373;28;20497;-77
2022/10/21 01:13:39;;;;;;;0.00;0.00;;;9.70;99.90;;;;;;4998309;28;20025;-76
2022/10/21 01:16:32;;;;;;;0.00;0.00;;;9.60;99.90;;;;;;4998401;28;20599;-77
2022/10/21 01:19:20;;;;;;;0.00;0.00;;;9.60;99.90;;;;;;4996382;28;20194;-79
2022/10/21 01:21:52;;;;;;;;;;;9.60;99.90;;;;;;5007891;28;20045;-76
2022/10/21 01:24:55;;;;;;;0.00;0.00;;;9.50;99.90;;;;;;4994259;28;19909;-75
2022/10/21 01:27:47;;;;;;;0.00;0.00;;;9.50;99.90;;;;;;5002220;28;20018;-75
2022/10/21 01:30:15;;;;;;;0.00;0.00;;;9.50;99.90;;;;;;4997101;28;20101;-74
2022/10/21 01:33:02;;;;;;;0.00;0.00;;;9.40;99.90;;;;;;5016313;28;20076;-78
2022/10/21 01:35:43;;;;;;;0.00;0.00;;;9.50;99.90;;;;;;4995358;28;20793;-74
2022/10/21 01:38:13;;;;;;;0.20;0.20;;;9.40;99.90;;;;;;4990824;28;20467;-75
2022/10/21 01:40:53;;;;;;;0.10;0.10;;;9.40;99.90;;;;;;4997326;28;20018;-76
2022/10/21 01:43:48;;;;;;;0.00;0.00;;;9.40;99.90;;;;;;5011576;28;20399;-74
2022/10/21 01:46:38;;;;;;;0.00;0.00;;;9.40;99.90;;;;;;4994527;28;20154;-74
2022/10/21 01:49:19;;;;;;;0.08;0.08;;;9.40;99.90;;;;;;4995161;28;20499;-74
2022/10/21 01:51:46;;;;;;;0.00;0.00;;;9.40;99.90;;;;;;4995100;28;20097;-75
2022/10/21 01:54:21;;;;;;;0.00;0.00;;;9.40;99.90;;;;;;4993138;28;20367;-75
2022/10/21 01:56:51;;;;;;;0.10;0.10;;;9.30;99.90;;;;;;4996326;28;20097;-76
2022/10/21 01:59:18;;;;;;;1.02;0.90;;;9.30;99.90;;;;;;4996868;28;20037;-74
2022/10/21 02:01:50;;;;;;;0.00;0.00;;;9.30;99.90;;;;;;5014741;28;20014;-75
2022/10/21 02:04:18;;;;;;;0.00;0.00;;;9.30;99.90;;;;;;5008507;28;20109;-75
2022/10/21 02:06:44;;;;;;;0.10;0.10;;;9.20;99.90;;;;;;4990751;28;20065;-76
2022/10/21 02:09:10;;;;;;;0.17;0.13;;;9.30;99.90;;;;;;4995631;28;20026;-81
2022/10/21 02:11:38;;;;;;;0.05;0.05;;;9.30;99.90;;;;;;4994644;28;20026;-75
2022/10/21 02:14:26;;;;;;;0.38;0.38;;;9.30;99.90;;;;;;4991807;28;20077;-75
2022/10/21 02:16:53;;;;;;;0.10;0.10;;;9.20;99.90;;;;;;4997595;28;20018;-76
2022/10/21 02:19:21;;;;;;;0.00;0.00;;;9.20;99.90;;;;;;5015955;28;20033;-76
2022/10/21 02:21:50;;;;;;;0.00;0.00;;;9.20;99.90;;;;;;4999789;28;20095;-75
2022/10/21 02:24:37;;;;;;;0.00;0.00;;;9.20;99.90;;;;;;5000862;28;20018;-76
2022/10/21 02:27:03;;;;;;;0.03;0.03;;;9.20;99.90;;;;;;5020967;28;20841;-74
2022/10/21 02:29:33;;;;;;;0.63;0.20;;;9.20;99.90;;;;;;4998237;28;20030;-76
2022/10/21 02:32:08;;;;;;;0.00;0.00;;;9.10;99.90;;;;;;4998988;28;20084;-76
2022/10/21 02:34:53;;;;;;;0.00;0.00;;;9.10;99.90;;;;;;5015943;28;20014;-75
2022/10/21 02:37:50;;;;;;;0.00;0.00;;;9.10;99.90;;;;;;4999845;28;20023;-75
2022/10/21 02:40:25;;;;;;;0.08;0.08;;;9.10;99.90;;;;;;5000567;28;20105;-76
2022/10/21 02:43:03;;;;;;;0.00;0.00;;;9.10;99.90;;;;;;4997141;28;20022;-75
2022/10/21 02:45:29;;;;;;;0.08;0.08;;;9.10;99.90;;;;;;5012546;28;20125;-75
2022/10/21 02:47:55;;;;;;;0.00;0.00;;;9.10;99.90;;;;;;5000545;28;20128;-76
2022/10/21 02:50:20;;;;;;;0.13;0.13;;;9.10;99.90;;;;;;5000483;28;20034;-75
2022/10/21 02:52:46;;;;;;;0.00;0.00;;;9.10;99.90;;;;;;4996913;28;20029;-74
2022/10/21 02:55:12;;;;;;;0.00;0.00;;;9.10;99.90;;;;;;5016308;28;20257;-75
2022/10/21 02:57:37;;;;;;;0.00;0.00;;;9.10;99.90;;;;;;5000121;28;20569;-74
2022/10/21 03:00:07;;;;;;;0.00;0.00;;;9.10;99.90;;;;;;4999236;28;20030;-74
2022/10/21 03:02:34;;;;;;;0.15;0.15;;;9.10;99.90;;;;;;5016691;28;20476;-75
2022/10/21 03:05:03;;;;;;;0.00;0.00;;;9.10;99.90;;;;;;5000643;28;20037;-75
2022/10/21 03:07:29;;;;;;;0.00;0.00;;;9.10;99.90;;;;;;4994798;28;20038;-75
2022/10/21 03:09:56;;;;;;;0.00;0.00;;;9.10;99.90;;;;;;5003883;28;20035;-75
2022/10/21 03:12:28;;;;;;;0.00;0.00;;;9.10;99.90;;;;;;5011884;28;20029;-75
2022/10/21 03:14:57;;;;;;;0.00;0.00;;;9.10;99.90;;;;;;4998146;28;20152;-75
2022/10/21 03:17:24;;;;;;;0.00;0.00;;;9.10;99.90;;;;;;4996658;28;20030;-75
2022/10/21 03:19:51;;;;;;;0.05;0.05;;;9.10;99.90;;;;;;5014210;28;20116;-76
2022/10/21 03:22:19;;;;;;;0.00;0.00;;;9.10;99.90;;;;;;5012749;28;20034;-75
2022/10/21 03:24:46;;;;;;;0.00;0.00;;;9.10;99.90;;;;;;4998380;28;20052;-75
2022/10/21 03:27:17;;;;;;;0.00;0.00;;;9.00;99.90;;;;;;4998775;28;20029;-76
2022/10/21 03:29:45;;;;;;;0.85;0.85;;;9.10;99.90;;;;;;5014661;28;20034;-75
2022/10/21 03:32:10;;;;;;;0.00;0.00;;;9.00;99.90;;;;;;5010150;28;20029;-75
2022/10/21 03:34:38;;;;;;;0.00;0.00;;;9.00;99.90;;;;;;4999881;28;20467;-75
2022/10/21 03:37:07;;;;;;;0.00;0.00;;;9.10;99.90;;;;;;4998159;28;20360;-74
2022/10/21 03:39:33;;;;;;;0.00;0.00;;;9.00;99.90;;;;;;4998085;28;20026;-74
2022/10/21 03:42:05;;;;;;;0.00;0.00;;;9.00;99.90;;;;;;4996151;28;20025;-75
2022/10/21 03:44:32;;;;;;;0.00;0.00;;;9.20;99.90;;;;;;4999024;28;20018;-77
2022/10/21 03:47:00;;;;;;;0.00;0.00;;;9.20;99.90;;;;;;5014341;28;20038;-75
2022/10/21 03:49:27;;;;;;;0.00;0.00;;;9.10;99.90;;;;;;4999630;28;20022;-76
2022/10/21 03:51:53;;;;;;;0.00;0.00;;;9.00;99.90;;;;;;4998679;28;20026;-76
2022/10/21 03:54:19;;;;;;;0.00;0.00;;;9.10;99.90;;;;;;4996388;28;20026;-75
2022/10/21 03:56:46;;;;;;;0.00;0.00;;;9.00;99.90;;;;;;5012915;28;20044;-74
2022/10/21 03:59:14;;;;;;;;;;;8.90;99.90;;;;;;5009866;28;20113;-75
2022/10/21 04:01:42;;;;;;;0.00;0.00;;;8.90;99.90;;;;;;5001355;28;19912;-75
2022/10/21 04:04:09;;;;;;;0.00;0.00;;;8.90;99.90;;;;;;4994312;28;20102;-75
2022/10/21 04:06:35;;;;;;;0.00;0.00;;;8.90;99.90;;;;;;4998903;28;20064;-74
2022/10/21 04:09:01;;;;;;;0.00;0.00;;;8.90;99.90;;;;;;4998673;28;20062;-76
2022/10/21 04:11:27;;;;;;;0.00;0.00;;;8.90;99.90;;;;;;4993307;28;20301;-75
2022/10/21 04:13:53;;;;;;;0.00;0.00;;;8.90;99.90;;;;;;4997893;28;20089;-75
2022/10/21 04:16:21;;;;;;;0.00;0.00;;;8.90;99.90;;;;;;4996876;28;20038;-75
2022/10/21 04:18:54;;;;;;;0.13;0.10;;;8.90;99.90;;;;;;4994970;28;20029;-75
2022/10/21 04:21:25;;;;;;;0.00;0.00;;;8.90;99.90;;;;;;4997687;28;20471;-75
2022/10/21 04:23:53;;;;;;;0.10;0.10;;;8.80;99.90;;;;;;4993841;28;20030;-76
2022/10/21 04:26:18;;;;;;;0.00;0.00;;;8.90;99.90;;;;;;5012210;28;20030;-77
2022/10/21 04:28:47;;;;;;;0.00;0.00;;;8.90;99.90;;;;;;4996638;28;20022;-76
2022/10/21 04:31:16;;;;;;;0.00;0.00;;;8.80;99.90;;;;;;4993110;28;20046;-75
2022/10/21 04:33:42;;;;;;;0.10;0.10;;;8.80;99.90;;;;;;4995934;28;20060;-77
2022/10/21 04:36:09;;;;;;;0.55;0.32;;;8.70;99.90;;;;;;4994268;28;20089;-75
2022/10/21 04:38:35;;;;;;;;;;;8.70;99.90;;;;;;4991684;28;20080;-75
2022/10/21 04:41:02;;;;;;;0.00;0.00;;;8.70;99.90;;;;;;4999047;28;20414;-75
2022/10/21 04:43:28;;;;;;;0.55;0.55;;;8.70;99.90;;;;;;5010976;28;20116;-75
2022/10/21 04:45:54;;;;;;;0.00;0.00;;;8.60;99.90;;;;;;4997475;28;20034;-75
2022/10/21 04:48:21;;;;;;;0.30;0.30;;;8.60;99.90;;;;;;4992383;28;20037;-75
2022/10/21 04:50:55;;;;;;;0.00;0.00;;;8.60;99.90;;;;;;4995304;28;20907;-74
2022/10/21 04:53:22;;;;;;;0.00;0.00;;;8.50;99.90;;;;;;5012001;28;20024;-76
2022/10/21 04:56:00;;;;;;;0.32;0.32;;;8.60;99.90;;;;;;5011976;28;20018;-75
2022/10/21 04:58:26;;;;;;;0.00;0.00;;;8.50;99.90;;;;;;5012258;28;20815;-75
2022/10/21 05:00:52;;;;;;;0.00;0.00;;;8.60;99.90;;;;;;5010563;28;20030;-75
2022/10/21 05:03:19;;;;;;;0.00;0.00;;;8.70;99.90;;;;;;4995877;28;20478;-74
2022/10/21 05:05:50;;;;;;;;;;;8.60;99.90;;;;;;4996988;28;20026;-76
2022/10/21 05:08:19;;;;;;;0.00;0.00;;;8.60;99.90;;;;;;4996319;28;20024;-75
2022/10/21 05:10:45;;;;;;;0.00;0.00;;;8.60;99.90;;;;;;4995607;28;20025;-75
2022/10/21 05:13:11;;;;;;;;;;;8.60;99.90;;;;;;5011493;28;20071;-75
2022/10/21 05:15:37;;;;;;;0.00;0.00;;;8.60;99.90;;;;;;4997740;28;20008;-74
2022/10/21 05:18:03;;;;;;;0.00;0.00;;;8.70;99.90;;;;;;4999046;28;20117;-75
2022/10/21 05:20:29;;;;;;;0.00;0.00;;;8.70;99.90;;;;;;4998124;28;20088;-75
2022/10/21 05:22:55;;;;;;;0.00;0.00;;;8.70;99.90;;;;;;4996461;28;20482;-74
2022/10/21 05:25:23;;;;;;;0.00;0.00;;;8.70;99.90;;;;;;5000293;28;20100;-75
2022/10/21 05:27:59;;;;;;;0.00;0.00;;;8.60;99.90;;;;;;5007432;28;20187;-75
2022/10/21 05:30:27;;;;;;;0.00;0.00;;;8.60;99.90;;;;;;4991704;28;20036;-75
2022/10/21 05:32:54;;;;;;;0.00;0.00;;;8.60;99.90;;;;;;5001089;28;20022;-83
2022/10/21 05:35:21;;;;;;;0.00;0.00;;;8.60;99.90;;;;;;5010530;28;20018;-77
2022/10/21 05:37:53;;;;;;;;;;;8.60;99.90;;;;;;4995556;28;20028;-78
2022/10/21 05:40:24;;;;;;;0.05;0.05;;;8.70;99.90;;;;;;4997903;28;19995;-75
2022/10/21 05:42:51;;;;;;;0.10;0.10;;;8.70;99.90;;;;;;5012468;28;20018;-76
2022/10/21 05:45:16;;;;;;;0.10;0.10;;;8.70;99.90;;;;;;5011926;28;20124;-76
2022/10/21 05:47:44;;;;;;;0.33;0.13;;;8.60;99.90;;;;;;4996496;28;20213;-76
2022/10/21 05:50:12;;;;;;;0.00;0.00;;;8.60;99.90;;;;;;4994007;28;20030;-74
2022/10/21 05:52:41;;;;;;;0.00;0.00;;;8.60;99.90;;;;;;5000866;28;20041;-76
2022/10/21 05:55:08;;;;;;;0.00;0.00;;;8.70;99.90;;;;;;4998645;28;20042;-75
2022/10/21 05:57:36;;;;;;;0.00;0.00;;;8.60;99.90;;;;;;5003144;28;20026;-75
2022/10/21 06:00:05;;;;;;;0.00;0.00;;;8.70;99.90;;;;;;5000865;28;20017;-74
2022/10/21 06:02:32;;;;;;;0.00;0.00;;;8.70;99.90;;;;;;5001598;28;20053;-75
2022/10/21 06:05:01;;;;;;;0.00;0.00;;;8.70;99.90;;;;;;4999601;28;20030;-75
2022/10/21 06:07:34;;;;;;;0.00;0.00;;;8.80;99.90;;;;;;5005005;28;20022;-76
2022/10/21 06:09:59;;;;;;;0.00;0.00;;;8.80;99.90;;;;;;5002150;28;20148;-76
2022/10/21 06:12:26;;;;;;;0.00;0.00;;;8.90;99.90;;;;;;5000320;28;20507;-75
2022/10/21 06:14:53;;;;;;;0.00;0.00;;;9.10;99.90;;;;;;5015639;28;20022;-76
2022/10/21 06:17:18;;;;;;;;;;;9.30;99.90;;;;;;4999031;28;20495;-77
2022/10/21 06:19:44;;;;;;;0.00;0.00;;;9.60;99.90;;;;;;5017589;28;19917;-81
2022/10/21 06:22:13;;;;;;;0.03;0.03;;;9.90;99.90;;;;;;5021329;28;20014;-76
2022/10/21 06:24:52;;;;;;;0.00;0.00;;;10.20;99.90;;;;;;4994519;28;20033;-77
2022/10/21 06:27:20;;;;;;;0.05;0.03;;;10.30;99.90;;;;;;4998975;28;20133;-80
2022/10/21 06:29:48;;;;;;;0.00;0.00;;;10.40;99.90;;;;;;5016458;28;20053;-81
2022/10/21 06:32:13;;;;;;;0.38;0.30;;;10.30;99.90;;;;;;5001145;28;20080;-83
2022/10/21 06:34:39;;;;;;;0.10;0.10;;;10.40;99.90;;;;;;4995626;28;20031;-76
2022/10/21 06:37:07;;;;;;;0.00;0.00;;;10.70;99.90;;;;;;5000929;28;20025;-75
2022/10/21 06:39:40;;;;;;;0.00;0.00;;;11.10;99.90;;;;;;5003490;28;20034;-76
2022/10/21 06:42:14;;;;;;;0.00;0.00;;;11.60;99.90;;;;;;4996782;28;20497;-76
2022/10/21 06:44:43;;;;;;;0.00;0.00;;;12.20;99.90;;;;;;4997703;28;20109;-75
2022/10/21 06:47:10;;;;;;;0.00;0.00;;;12.70;99.90;;;;;;5006088;28;20556;-76
2022/10/21 06:49:39;;;;;;;0.00;0.00;;;12.80;99.90;;;;;;5007530;28;20030;-77
2022/10/21 06:52:13;;;;;;;0.00;0.00;;;13.20;99.90;;;;;;5015571;28;20014;-75
2022/10/21 06:54:42;;;;;;;0.00;0.00;;;14.10;99.90;;;;;;4992931;28;20684;-74
2022/10/21 06:57:11;;;;;;;0.25;0.08;;;14.80;99.90;;;;;;5013655;28;20045;-75
2022/10/21 06:59:41;;;;;;;0.00;0.00;;;15.00;99.90;;;;;;4999877;28;20479;-75
2022/10/21 07:02:10;;;;;;;0.00;0.00;;;14.20;99.90;;;;;;4997330;28;20029;-76
2022/10/21 07:04:36;;;;;;;0.00;0.00;;;14.20;99.90;;;;;;4990804;28;20018;-77
2022/10/21 07:07:03;;;;;;;0.93;0.30;;;14.20;99.90;;;;;;5000385;28;20092;-75
2022/10/21 07:09:29;;;;;;;0.00;0.00;;;14.30;99.90;;;;;;4998160;28;20049;-76
2022/10/21 07:11:59;;;;;;;0.00;0.00;;;14.30;99.90;;;;;;5004851;28;20036;-77
2022/10/21 07:14:25;;;;;;;0.00;0.00;;;13.80;99.90;;;;;;4996031;28;20034;-75
2022/10/21 07:16:52;;;;;;;;;;;13.20;99.90;;;;;;4993761;28;20124;-76
2022/10/21 07:19:19;;;;;;;0.20;0.20;;;12.90;99.90;;;;;;4995935;28;19905;-76
2022/10/21 07:21:50;;;;;;;;;;;13.00;99.90;;;;;;4998704;28;20320;-80
2022/10/21 07:24:16;;;;;;;0.00;0.00;;;13.00;99.90;;;;;;4997623;28;19905;-63
2022/10/21 07:26:42;;;;;;;0.23;0.20;;;12.80;99.90;;;;;;4995791;28;20034;-63
2022/10/21 07:29:07;;;;;;;0.00;0.00;;;12.90;99.90;;;;;;4997259;28;20053;-63
2022/10/21 07:31:36;;;;;;;0.00;0.00;;;13.10;99.90;;;;;;4996047;28;20034;-62
2022/10/21 07:34:04;;;;;;;0.00;0.00;;;13.70;99.90;;;;;;5019015;28;20026;-76
2022/10/21 07:36:35;;;;;;;0.00;0.00;;;13.70;99.90;;;;;;4997973;28;20053;-76
2022/10/21 07:39:04;;;;;;;0.00;0.00;;;13.70;99.90;;;;;;5011679;28;20033;-75
2022/10/21 07:41:37;;;;;;;0.00;0.00;;;14.30;99.90;;;;;;5013800;28;20033;-76
2022/10/21 07:44:15;;;;;;;0.00;0.00;;;15.00;99.90;;;;;;5018680;28;20037;-76
2022/10/21 07:46:45;;;;;;;0.20;0.13;;;14.70;99.80;;;;;;4992034;28;20103;-76
2022/10/21 07:49:12;;;;;;;0.00;0.00;;;15.20;99.30;;;;;;4998755;28;20246;-76
2022/10/21 07:51:40;;;;;;;;;;;14.90;99.10;;;;;;5018170;28;20108;-77
2022/10/21 07:54:10;;;;;;;0.10;0.10;;;14.60;99.50;;;;;;4990708;28;20584;-78
2022/10/21 07:56:40;;;;;;;0.10;0.08;;;14.60;99.60;;;;;;4999474;28;20105;-76
2022/10/21 07:59:19;;;;;;;0.15;0.15;;;15.40;98.70;;;;;;4993085;28;20019;-77
2022/10/21 08:01:46;;;;;;;0.13;0.13;;;15.50;97.90;;;;;;5002957;28;20022;-76
2022/10/21 08:04:19;;;;;;;0.00;0.00;;;16.20;97.10;;;;;;5013786;28;20025;-76
2022/10/21 08:06:47;;;;;;;0.00;0.00;;;17.10;95.70;;;;;;5010968;28;20018;-77
2022/10/21 08:09:15;;;;;;;0.00;0.00;;;17.00;94.80;;;;;;5010703;28;20026;-77
2022/10/21 08:11:42;;;;;;;0.00;0.00;;;16.60;95.40;;;;;;4997291;28;20026;-77
2022/10/21 08:14:11;;;;;;;0.00;0.00;;;16.90;95.00;;;;;;4990600;28;20029;-78
2022/10/21 08:16:37;;;;;;;0.00;0.00;;;16.90;94.50;;;;;;4994326;28;20032;-76
2022/10/21 08:19:07;;;;;;;0.00;0.00;;;16.70;94.80;;;;;;4991486;28;20094;-76
2022/10/21 08:21:33;;;;;;;0.20;0.20;;;17.80;93.40;;;;;;4996878;28;20030;-76
2022/10/21 08:24:11;;;;;;;0.00;0.00;;;17.60;92.90;;;;;;4993531;28;20411;-76
2022/10/21 08:26:37;;;;;;;0.00;0.00;;;17.70;92.90;;;;;;5013954;28;20506;-76
2022/10/21 08:29:05;;;;;;;0.10;0.10;;;18.00;92.00;;;;;;5000131;28;20022;-77
2022/10/21 08:31:30;;;;;;;0.00;0.00;;;17.00;92.90;;;;;;4998761;28;20080;-76
2022/10/21 08:33:58;;;;;;;0.00;0.00;;;17.30;92.80;;;;;;5012794;28;20026;-76
2022/10/21 08:36:26;;;;;;;0.00;0.00;;;17.50;92.40;;;;;;5015876;28;20751;-77
2022/10/21 08:38:52;;;;;;;0.00;0.00;;;17.10;92.80;;;;;;4994952;28;20165;-77
2022/10/21 08:41:28;;;;;;;1.20;0.98;;;16.60;93.10;;;;;;5001673;28;20064;-78
2022/10/21 08:44:17;;;;;;;0.00;0.00;;;16.00;94.20;;;;;;5013966;28;20041;-77
2022/10/21 08:47:12;;;;;;;0.00;0.00;;;15.30;95.00;;;;;;5011354;28;20156;-77
2022/10/21 08:49:54;;;;;;;0.90;0.90;;;14.80;96.10;;;;;;4992243;28;20034;-77
2022/10/21 08:52:30;;;;;;;0.00;0.00;;;14.20;97.30;;;;;;4994114;28;20010;-77
2022/10/21 08:55:00;;;;;;;0.00;0.00;;;14.10;97.60;;;;;;4998143;28;20101;-76
2022/10/21 08:57:34;;;;;;;0.00;0.00;;;14.20;98.30;;;;;;4991451;28;20022;-79
2022/10/21 09:00:16;;;;;;;0.00;0.00;;;14.20;98.20;;;;;;4996583;28;20041;-79
2022/10/21 09:02:58;;;;;;;0.10;0.10;;;14.30;98.00;;;;;;5011232;28;20033;-78
2022/10/21 09:05:46;;;;;;;0.20;0.20;;;14.60;97.70;;;;;;4989367;28;20050;-76
2022/10/21 09:08:25;;;;;;;0.00;0.00;;;14.40;98.00;;;;;;5010027;28;20084;-75
2022/10/21 09:11:27;;;;;;;0.00;0.00;;;14.40;98.00;;;;;;5012417;28;20057;-77
2022/10/21 09:14:16;;;;;;;0.00;0.00;;;14.30;98.10;;;;;;4991827;28;20018;-76
2022/10/21 09:16:59;;;;;;;0.00;0.00;;;14.40;98.10;;;;;;4996172;28;20029;-76
2022/10/21 09:19:40;;;;;;;0.00;0.00;;;13.80;98.60;;;;;;4997167;28;20030;-76
2022/10/21 09:22:25;;;;;;;0.00;0.00;;;13.90;99.20;;;;;;4996402;28;20010;-77
2022/10/21 09:25:16;;;;;;;0.00;0.00;;;14.80;98.40;;;;;;5011771;28;20455;-77
2022/10/21 09:27:49;;;;;;;0.00;0.00;;;14.30;98.10;;;;;;5007866;28;20021;-77
2022/10/21 09:30:20;;;;;;;0.52;0.52;;;14.80;97.90;;;;;;4997561;28;20109;-76
2022/10/21 09:32:58;;;;;;;0.00;0.00;;;14.60;97.50;;;;;;4994315;28;20022;-77
2022/10/21 09:35:39;;;;;;;0.00;0.00;;;14.00;98.40;;;;;;5009426;28;20030;-77
2022/10/21 09:38:25;;;;;;;0.00;0.00;;;13.70;99.10;;;;;;5012467;28;20018;-76
2022/10/21 09:41:02;;;;;;;0.00;0.00;;;13.90;99.00;;;;;;4999564;28;20116;-76
2022/10/21 09:43:29;;;;;;;;;;;14.10;98.70;;;;;;5017131;28;20037;-77
2022/10/21 09:45:56;;;;;;;;;;;14.40;98.40;;;;;;4998083;28;19917;-77
2022/10/21 09:48:49;;;;;;;0.20;0.10;;;15.20;97.40;;;;;;5013400;28;19956;-76
2022/10/21 09:51:36;;;;;;;0.00;0.00;;;15.90;96.60;;;;;;4995817;28;20034;-76
2022/10/21 09:54:22;;;;;;;0.00;0.00;;;16.20;95.30;;;;;;4990366;28;20023;-76
2022/10/21 09:57:25;;;;;;;0.00;0.00;;;15.70;95.70;;;;;;4994108;28;20487;-76
2022/10/21 09:59:57;;;;;;;0.05;0.05;;;15.10;96.70;;;;;;5016657;28;20053;-77
2022/10/21 10:02:32;;;;;;;0.05;0.05;;;14.90;97.10;;;;;;5015529;28;20037;-77
2022/10/21 10:04:59;;;;;;;0.00;0.00;;;15.20;97.00;;;;;;5012926;28;20030;-77
2022/10/21 10:07:34;;;;;;;0.00;0.00;;;15.50;96.40;;;;;;4996328;28;20484;-77
2022/10/21 10:10:03;;;;;;;0.10;0.10;;;14.80;97.20;;;;;;4992821;28;20045;-79
2022/10/21 10:12:29;;;;;;;0.13;0.13;;;14.10;98.10;;;;;;4995524;28;20044;-78
2022/10/21 10:15:01;;;;;;;1.90;0.32;;;14.20;98.60;;;;;;4994514;28;20072;-73
2022/10/21 10:17:36;;;;;;;0.00;0.00;;;15.10;97.60;;;;;;4988530;28;20052;-71
2022/10/21 10:20:07;;;;;;;0.00;0.00;;;15.40;97.10;;;;;;4993698;28;20113;-72
2022/10/21 10:22:36;;;;;;;0.00;0.00;;;15.80;96.50;;;;;;4989392;28;20028;-70
2022/10/21 10:25:11;;;;;;;0.00;0.00;;;15.80;96.10;;;;;;5009603;28;20467;-71
2022/10/21 10:28:01;;;;;;;0.00;0.00;;;15.40;96.30;;;;;;4990365;28;20025;-71
2022/10/21 10:30:52;;;;;;;0.00;0.00;;;15.00;96.70;;;;;;4996491;28;20026;-78
2022/10/21 10:33:33;;;;;;;0.00;0.00;;;14.30;97.40;;;;;;5012194;28;20127;-80
2022/10/21 10:36:01;;;;;;;0.00;0.00;;;13.90;98.60;;;;;;4998064;28;20026;-78
2022/10/21 10:38:54;;;;;;;0.00;0.00;;;13.90;98.50;;;;;;5012927;28;20031;-77
2022/10/21 10:41:27;;;;;;;0.00;0.00;;;14.40;98.20;;;;;;5010932;28;20037;-77
2022/10/21 10:44:06;;;;;;;0.10;0.10;;;14.60;97.70;;;;;;5000468;28;20099;-77
2022/10/21 10:46:38;;;;;;;0.00;0.00;;;14.60;97.60;;;;;;5001008;28;20033;-77
2022/10/21 10:49:25;;;;;;;0.00;0.00;;;14.60;98.00;;;;;;5012941;28;20704;-75
2022/10/21 10:52:10;;;;;;;0.00;0.00;;;14.90;97.30;;;;;;4999103;28;20022;-75
2022/10/21 10:55:14;;;;;;;0.30;0.30;;;14.90;97.80;;;;;;4997573;28;20017;-75
2022/10/21 10:57:47;;;;;;;0.00;0.00;;;15.10;97.30;;;;;;4993552;28;20021;-75
2022/10/21 11:00:22;;;;;;;0.00;0.00;;;14.90;97.20;;;;;;5015294;28;20022;-76
2022/10/21 11:03:03;;;;;;;0.00;0.00;;;14.60;97.30;;;;;;4999441;28;20022;-75
2022/10/21 11:05:46;;;;;;;0.00;0.00;;;14.40;98.00;;;;;;4997598;28;20297;-76
2022/10/21 11:08:40;;;;;;;0.00;0.00;;;14.30;97.70;;;;;;4991952;28;20022;-76
2022/10/21 11:11:16;;;;;;;0.10;0.10;;;14.30;98.00;;;;;;5000353;28;20053;-75
2022/10/21 11:13:48;;;;;;;0.00;0.00;;;14.30;97.80;;;;;;4997220;28;20018;-75
2022/10/21 11:16:35;;;;;;;0.00;0.00;;;14.60;97.20;;;;;;4999076;28;20083;-75
2022/10/21 11:19:27;;;;;;;0.00;0.00;;;14.60;97.60;;;;;;4997164;28;20033;-76
2022/10/21 11:22:34;;;;;;;0.00;0.00;;;14.60;97.50;;;;;;4999600;28;20042;-77
2022/10/21 11:25:32;;;;;;;0.52;0.13;;;14.00;97.90;;;;;;4992916;28;20804;-77
2022/10/21 11:28:06;;;;;;;0.00;0.00;;;13.80;98.30;;;;;;4997207;28;20042;-77
2022/10/21 11:31:13;;;;;;;0.85;0.20;;;13.70;98.60;;;;;;5000907;28;20037;-76
2022/10/21 11:34:06;;;;;;;0.00;0.00;;;13.70;98.60;;;;;;4997512;28;20098;-76
2022/10/21 11:36:31;;;;;;;0.00;0.00;;;13.80;98.70;;;;;;5014663;28;20049;-77
2022/10/21 11:48:10;;;;;;;0.00;0.00;;;13.70;99.00;;;;;;4999333;28;20061;-76
2022/10/21 11:51:09;;;;;;;0.00;0.00;;;13.80;99.20;;;;;;4977734;28;20060;-76
2022/10/21 11:53:59;;;;;;;0.00;0.00;;;13.80;99.00;;;;;;4997255;28;20573;-76
2022/10/21 11:56:38;;;;;;;0.13;0.13;;;13.90;98.80;;;;;;4998221;28;20072;-75
2022/10/21 11:59:26;;;;;;;0.00;0.00;;;14.00;98.60;;;;;;4999368;28;20026;-73
2022/10/21 12:02:19;;;;;;;0.00;0.00;;;14.00;98.60;;;;;;4997851;28;20025;-74
2022/10/21 12:05:01;;;;;;;0.00;0.00;;;14.10;98.30;;;;;;4989265;28;20026;-76
2022/10/21 12:07:41;;;;;;;0.00;0.00;;;14.10;98.30;;;;;;5004788;28;20025;-77
2022/10/21 12:10:39;;;;;;;0.05;0.05;;;13.80;98.90;;;;;;4999573;28;20041;-75
2022/10/21 12:13:35;;;;;;;0.10;0.10;;;13.70;98.80;;;;;;4985062;28;20093;-77
2022/10/21 12:16:07;;;;;;;0.10;0.10;;;13.60;99.20;;;;;;4920215;29;20034;-75
2022/10/21 12:18:42;;;;;;;0.00;0.00;;;13.60;99.70;;;;;;4981883;28;20097;-75
2022/10/21 12:21:15;;;;;;;0.30;0.30;;;13.50;99.40;;;;;;4994390;28;20387;-74
2022/10/21 12:23:47;;;;;;;0.00;0.00;;;13.30;99.90;;;;;;4978769;28;20112;-75
2022/10/21 12:26:31;;;;;;;0.00;0.00;;;13.30;99.90;;;;;;4994134;28;20163;-74
2022/10/21 12:29:11;;;;;;;1.10;0.93;;;13.30;99.90;;;;;;4995500;28;20038;-76
2022/10/21 12:31:44;;;;;;;0.00;0.00;;;13.40;99.90;;;;;;4998067;28;20025;-74
2022/10/21 12:34:11;;;;;;;0.00;0.00;;;13.30;99.90;;;;;;4995994;28;20121;-75
2022/10/21 12:36:41;;;;;;;0.03;0.03;;;13.20;99.90;;;;;;4995493;28;20018;-78
2022/10/21 12:39:35;;;;;;;0.25;0.25;;;13.00;99.90;;;;;;4995758;28;20064;-75
2022/10/21 12:42:04;;;;;;;0.00;0.00;;;13.00;99.90;;;;;;4980084;28;20107;-73
2022/10/21 12:44:38;;;;;;;0.00;0.00;;;12.90;99.90;;;;;;4997660;28;20030;-77
2022/10/21 12:47:29;;;;;;;0.00;0.00;;;12.90;99.90;;;;;;4998627;28;20889;-75
2022/10/21 12:53:40;;;;;;;0.00;0.00;;;12.80;99.90;;;;;;5011928;28;20086;-90
2022/10/21 12:59:30;;;;;;;0.05;0.05;;;13.20;99.90;;;;;;5016241;28;20020;-80
2022/10/21 13:13:11;;;;;;;;;;;13.40;99.90;;;;;;5254994;23;20145;-77
2022/10/21 13:15:47;;;;;;;0.00;0.00;;;13.30;99.90;;;;;;4992719;28;19988;-77
2022/10/21 13:18:52;;;;;;;0.00;0.00;;;13.40;99.90;;;;;;4986146;28;20054;-76
2022/10/21 13:22:11;;;;;;;0.00;0.00;;;13.40;99.90;;;;;;4994099;28;20030;-76
2022/10/21 13:24:37;;;;;;;0.00;0.00;;;13.30;99.90;;;;;;4954034;28;20053;-77
2022/10/21 13:27:22;;;;;;;0.05;0.05;;;13.20;99.90;;;;;;4994850;28;20506;-75
2022/10/21 13:29:51;;;;;;;0.00;0.00;;;13.10;99.90;;;;;;4996353;28;20073;-76
2022/10/21 13:32:32;;;;;;;0.00;0.00;;;13.20;99.90;;;;;;5000758;28;20014;-77
2022/10/21 13:35:09;;;;;;;0.08;0.03;;;13.20;99.90;;;;;;4997781;28;20033;-77
2022/10/21 13:37:37;;;;;;;0.00;0.00;;;13.10;99.90;;;;;;4997527;28;20084;-75
2022/10/21 13:40:13;;;;;;;0.00;0.00;;;13.00;99.90;;;;;;4979489;28;20044;-75
2022/10/21 13:42:43;;;;;;;0.00;0.00;;;13.00;99.90;;;;;;4973561;28;20022;-75
2022/10/21 13:45:26;;;;;;;0.00;0.00;;;13.00;99.90;;;;;;4981372;28;20029;-76
2022/10/21 13:48:00;;;;;;;0.10;0.10;;;13.00;99.90;;;;;;4993316;28;20094;-74
2022/10/21 13:50:38;;;;;;;0.00;0.00;;;13.00;99.90;;;;;;4995998;28;20057;-75
2022/10/21 13:53:35;;;;;;;0.35;0.25;;;13.00;99.90;;;;;;4995006;28;20903;-75
2022/10/21 13:56:07;;;;;;;0.00;0.00;;;13.00;99.90;;;;;;4991771;28;20113;-76